createdAt,value
2022-08-17T00:01:32.730Z,69.20
2022-08-17T00:04:19.420Z,69.20
2022-08-17T00:06:48.622Z,69.40
2022-08-17T00:09:19.544Z,69.60
2022-08-17T00:12:35.041Z,70.00
2022-08-17T00:14:33.876Z,70.40
2022-08-17T00:17:00.810Z,70.80
2022-08-17T00:19:27.729Z,70.90
2022-08-17T00:22:31.975Z,70.60
2022-08-17T00:24:43.409Z,70.50
2022-08-17T00:27:10.362Z,70.20
2022-08-17T00:29:37.288Z,70.10
2022-08-17T00:33:15.898Z,70.00
2022-08-17T00:34:53.495Z,69.80
2022-08-17T00:37:20.577Z,69.90
2022-08-17T00:39:47.595Z,69.70
2022-08-17T00:42:15.229Z,69.70
2022-08-17T00:44:42.188Z,69.70
2022-08-17T00:47:09.161Z,69.60
2022-08-17T00:49:36.101Z,69.60
2022-08-17T00:52:10.867Z,69.60
2022-08-17T00:54:41.098Z,69.70
2022-08-17T00:57:19.170Z,70.10
2022-08-17T01:00:03.190Z,69.80
2022-08-17T01:02:40.346Z,70.50
2022-08-17T01:05:09.498Z,71.00
2022-08-17T01:07:37.827Z,70.90
2022-08-17T01:10:05.721Z,71.30
2022-08-17T01:12:34.079Z,71.50
2022-08-17T01:15:00.959Z,71.60
2022-08-17T01:17:28.733Z,71.90
2022-08-17T01:19:55.600Z,72.00
2022-08-17T01:22:25.073Z,72.00
2022-08-17T01:24:53.782Z,71.70
2022-08-17T01:27:21.276Z,71.50
2022-08-17T01:29:50.257Z,71.30
2022-08-17T01:32:17.226Z,71.50
2022-08-17T01:34:50.088Z,71.50
2022-08-17T01:37:17.713Z,71.40
2022-08-17T01:39:45.892Z,71.30
2022-08-17T01:42:23.618Z,71.20
2022-08-17T01:44:51.389Z,71.40
2022-08-17T01:47:18.340Z,71.30
2022-08-17T01:49:45.210Z,71.10
2022-08-17T01:52:12.230Z,71.10
2022-08-17T01:54:40.056Z,70.90
2022-08-17T01:57:07.107Z,70.80
2022-08-17T01:59:34.129Z,70.60
2022-08-17T02:02:01.222Z,70.50
2022-08-17T02:04:28.112Z,70.50
2022-08-17T02:06:54.990Z,70.70
2022-08-17T02:09:25.182Z,70.70
2022-08-17T02:11:53.077Z,70.80
2022-08-17T02:14:21.152Z,70.80
2022-08-17T02:16:48.030Z,70.70
2022-08-17T02:19:15.924Z,70.50
2022-08-17T02:21:43.574Z,70.60
2022-08-17T02:24:11.634Z,70.80
2022-08-17T02:26:38.588Z,70.70
2022-08-17T02:29:05.546Z,71.00
2022-08-17T02:31:32.737Z,71.00
2022-08-17T02:34:03.585Z,71.30
2022-08-17T02:36:31.327Z,71.30
2022-08-17T02:38:58.782Z,71.30
2022-08-17T02:41:25.775Z,71.50
2022-08-17T02:43:53.704Z,71.40
2022-08-17T02:46:20.664Z,71.50
2022-08-17T02:48:47.592Z,71.70
2022-08-17T02:51:14.708Z,71.80
2022-08-17T02:53:41.656Z,71.70
2022-08-17T02:56:08.527Z,71.80
2022-08-17T02:58:36.200Z,71.80
2022-08-17T03:01:04.437Z,71.70
2022-08-17T03:03:31.324Z,71.80
2022-08-17T03:05:58.190Z,72.20
2022-08-17T03:08:25.682Z,72.40
2022-08-17T03:10:52.604Z,72.40
2022-08-17T03:13:19.564Z,72.50
2022-08-17T03:15:46.668Z,72.60
2022-08-17T03:18:24.153Z,72.50
2022-08-17T03:20:52.506Z,72.40
2022-08-17T03:23:23.844Z,72.40
2022-08-17T03:25:53.296Z,72.30
2022-08-17T03:28:20.660Z,72.30
2022-08-17T03:30:47.521Z,72.30
2022-08-17T03:33:14.433Z,72.40
2022-08-17T03:35:41.381Z,72.40
2022-08-17T03:38:09.185Z,72.60
2022-08-17T03:40:56.465Z,72.60
2022-08-17T03:43:23.362Z,72.70
2022-08-17T03:46:19.989Z,73.00
2022-08-17T03:49:14.155Z,73.10
2022-08-17T03:51:59.546Z,73.20
2022-08-17T03:54:44.802Z,73.10
2022-08-17T03:57:11.802Z,72.90
2022-08-17T03:59:38.926Z,72.70
2022-08-17T04:02:09.169Z,72.80
2022-08-17T04:04:36.366Z,72.70
2022-08-17T04:07:03.438Z,72.70
2022-08-17T04:09:30.359Z,73.30
2022-08-17T04:11:57.462Z,72.80
2022-08-17T04:14:33.819Z,72.60
2022-08-17T04:17:00.668Z,72.50
2022-08-17T04:19:27.648Z,72.50
2022-08-17T04:21:54.563Z,72.60
2022-08-17T04:24:21.461Z,72.50
2022-08-17T04:26:53.261Z,72.30
2022-08-17T04:29:21.555Z,72.10
2022-08-17T04:31:48.433Z,72.10
2022-08-17T04:34:19.797Z,71.90
2022-08-17T04:36:50.329Z,71.60
2022-08-17T04:39:17.498Z,71.50
2022-08-17T04:42:03.172Z,72.00
2022-08-17T04:44:36.930Z,71.60
2022-08-17T04:47:05.264Z,71.40
2022-08-17T04:49:32.760Z,71.30
2022-08-17T04:52:04.428Z,71.30
2022-08-17T04:54:31.643Z,71.00
2022-08-17T04:56:58.601Z,71.00
2022-08-17T04:59:25.508Z,70.80
2022-08-17T05:01:52.483Z,70.70
2022-08-17T05:04:32.904Z,70.80
2022-08-17T05:07:02.297Z,70.90
2022-08-17T05:09:29.242Z,71.00
2022-08-17T05:11:56.275Z,71.00
2022-08-17T05:14:32.941Z,70.80
2022-08-17T05:17:01.169Z,70.80
2022-08-17T05:19:28.714Z,70.70
2022-08-17T05:21:55.592Z,70.50
2022-08-17T05:24:42.860Z,70.30
2022-08-17T05:27:09.429Z,70.20
2022-08-17T05:29:37.050Z,70.30
2022-08-17T05:32:38.222Z,70.50
2022-08-17T05:35:00.540Z,70.10
2022-08-17T05:37:27.812Z,69.80
2022-08-17T05:39:54.874Z,69.90
2022-08-17T05:42:21.809Z,69.70
2022-08-17T05:44:48.697Z,69.40
2022-08-17T05:47:15.620Z,69.40
2022-08-17T05:49:42.510Z,69.30
2022-08-17T05:52:12.464Z,68.90
2022-08-17T05:54:49.512Z,68.60
2022-08-17T05:57:16.365Z,68.40
2022-08-17T05:59:48.760Z,68.20
2022-08-17T06:02:35.029Z,68.00
2022-08-17T06:05:15.422Z,67.90
2022-08-17T06:07:46.334Z,67.80
2022-08-17T06:10:15.290Z,67.60
2022-08-17T06:12:50.515Z,67.60
2022-08-17T06:15:23.910Z,67.60
2022-08-17T06:17:56.299Z,67.60
2022-08-17T06:20:23.216Z,67.00
2022-08-17T06:22:50.845Z,66.80
2022-08-17T06:25:24.002Z,66.50
2022-08-17T06:27:55.851Z,66.30
2022-08-17T06:30:26.092Z,66.00
2022-08-17T06:32:53.735Z,64.90
2022-08-17T06:35:34.026Z,64.40
2022-08-17T06:38:04.803Z,64.20
2022-08-17T06:40:37.788Z,63.70
2022-08-17T06:43:14.833Z,63.50
2022-08-17T06:45:49.637Z,63.20
2022-08-17T06:48:29.165Z,62.80
2022-08-17T06:51:00.598Z,62.80
2022-08-17T06:53:56.931Z,62.30
2022-08-17T06:56:52.661Z,61.60
2022-08-17T06:59:20.044Z,61.50
2022-08-17T07:01:47.550Z,61.40
2022-08-17T07:04:17.246Z,59.90
2022-08-17T07:06:50.050Z,59.50
2022-08-17T07:09:24.928Z,58.90
2022-08-17T07:11:53.291Z,59.10
2022-08-17T07:14:24.236Z,58.60
2022-08-17T07:16:51.892Z,58.20
2022-08-17T07:19:20.427Z,57.90
2022-08-17T07:21:52.831Z,57.60
2022-08-17T07:24:32.140Z,58.30
2022-08-17T07:27:21.503Z,57.40
2022-08-17T07:29:53.987Z,57.20
2022-08-17T07:32:23.494Z,57.00
2022-08-17T07:35:00.497Z,56.90
2022-08-17T07:37:27.705Z,56.70
2022-08-17T07:40:14.855Z,56.30
2022-08-17T07:42:46.703Z,55.50
2022-08-17T07:45:33.722Z,55.60
2022-08-17T07:48:19.611Z,54.70
2022-08-17T07:50:49.592Z,54.90
2022-08-17T07:53:18.993Z,54.80
2022-08-17T07:55:46.007Z,53.90
2022-08-17T07:58:17.691Z,53.60
2022-08-17T08:00:46.071Z,53.40
2022-08-17T08:03:32.242Z,53.50
2022-08-17T08:06:02.186Z,53.70
2022-08-17T08:08:31.196Z,53.30
2022-08-17T08:11:06.380Z,52.90
2022-08-17T08:13:33.787Z,53.00
2022-08-17T08:16:24.919Z,52.80
2022-08-17T08:18:57.339Z,51.70
2022-08-17T08:21:33.486Z,51.10
2022-08-17T08:24:15.337Z,51.60
2022-08-17T08:26:48.229Z,51.80
2022-08-17T08:29:18.832Z,51.90
2022-08-17T08:31:58.683Z,51.50
2022-08-17T08:34:47.415Z,52.00
2022-08-17T08:37:30.300Z,51.80
2022-08-17T08:40:16.144Z,51.80
2022-08-17T08:42:50.056Z,51.20
2022-08-17T08:45:19.812Z,50.80
2022-08-17T08:47:49.982Z,50.60
2022-08-17T08:50:37.470Z,50.80
2022-08-17T08:53:08.195Z,50.40
2022-08-17T08:55:42.450Z,50.60
2022-08-17T08:58:31.957Z,50.30
2022-08-17T09:01:46.305Z,50.30
2022-08-17T09:04:27.966Z,49.70
2022-08-17T09:07:00.824Z,49.20
2022-08-17T09:10:07.812Z,48.60
2022-08-17T09:12:34.783Z,49.10
2022-08-17T09:15:05.013Z,49.10
2022-08-17T09:17:37.633Z,48.00
2022-08-17T09:20:04.963Z,48.60
2022-08-17T09:22:34.900Z,48.60
2022-08-17T09:25:04.666Z,47.60
2022-08-17T09:27:33.508Z,47.50
2022-08-17T09:30:00.846Z,47.60
2022-08-17T09:32:41.128Z,47.40
2022-08-17T09:35:11.902Z,46.50
2022-08-17T09:41:49.199Z,46.80
2022-08-17T09:44:24.506Z,45.80
2022-08-17T09:46:53.892Z,46.40
2022-08-17T09:49:31.854Z,45.30
2022-08-17T09:52:02.210Z,45.50
2022-08-17T09:54:38.969Z,45.60
2022-08-17T09:57:29.936Z,44.60
2022-08-17T10:03:09.853Z,44.70
2022-08-17T10:05:40.948Z,45.00
2022-08-17T10:08:23.507Z,44.90
2022-08-17T10:10:56.370Z,44.00
2022-08-17T10:13:39.945Z,44.20
2022-08-17T10:16:24.185Z,42.60
2022-08-17T10:19:03.653Z,42.10
2022-08-17T10:21:50.394Z,42.40
2022-08-17T10:25:21.344Z,42.10
2022-08-17T10:27:52.772Z,42.70
2022-08-17T10:30:26.860Z,42.80
2022-08-17T10:32:55.409Z,42.60
2022-08-17T10:35:41.220Z,42.70
2022-08-17T10:38:12.258Z,43.10
2022-08-17T10:43:20.280Z,42.40
2022-08-17T10:48:27.468Z,41.70
2022-08-17T10:53:33.821Z,40.70
2022-08-17T11:11:07.660Z,40.80
2022-08-17T11:13:41.080Z,41.20
2022-08-17T11:16:25.724Z,40.10
2022-08-17T11:19:11.902Z,39.60
2022-08-17T11:21:39.761Z,40.00
2022-08-17T11:24:14.285Z,40.30
2022-08-17T11:29:28.140Z,39.70
2022-08-17T11:51:27.611Z,38.90
2022-08-17T11:54:14.616Z,38.70
2022-08-17T11:56:48.938Z,38.80
2022-08-17T11:59:41.195Z,37.80
2022-08-17T12:02:22.244Z,38.50
2022-08-17T12:05:12.129Z,38.60
2022-08-17T12:07:42.014Z,38.00
2022-08-17T12:10:52.180Z,37.70
2022-08-17T12:13:19.675Z,36.70
2022-08-17T12:15:50.076Z,36.80
2022-08-17T12:18:28.054Z,37.20
2022-08-17T12:21:13.826Z,37.20
2022-08-17T12:23:40.838Z,36.10
2022-08-17T12:26:19.609Z,36.20
2022-08-17T12:28:50.988Z,35.70
2022-08-17T12:31:20.332Z,36.40
2022-08-17T12:33:47.604Z,35.10
2022-08-17T12:36:15.393Z,35.30
2022-08-17T12:38:48.990Z,35.50
2022-08-17T12:41:29.409Z,35.60
2022-08-17T12:44:03.907Z,36.10
2022-08-17T12:46:35.069Z,36.20
2022-08-17T12:49:23.144Z,35.80
2022-08-17T12:51:50.545Z,36.20
2022-08-17T12:54:24.423Z,35.80
2022-08-17T12:56:51.320Z,35.60
2022-08-17T12:59:29.813Z,35.50
2022-08-17T13:01:57.778Z,35.10
2022-08-17T13:04:26.630Z,34.90
2022-08-17T13:06:59.890Z,34.10
2022-08-17T13:09:35.594Z,34.40
2022-08-17T13:12:03.226Z,34.50
2022-08-17T13:14:34.596Z,34.80
2022-08-17T13:17:01.941Z,35.80
2022-08-17T13:19:40.320Z,35.60
2022-08-17T13:22:10.379Z,34.70
2022-08-17T13:24:37.943Z,35.20
2022-08-17T13:27:07.798Z,34.70
2022-08-17T13:29:37.213Z,34.70
2022-08-17T13:32:05.083Z,34.90
2022-08-17T13:35:03.746Z,34.90
2022-08-17T13:37:34.563Z,34.70
2022-08-17T13:40:17.597Z,35.10
2022-08-17T13:43:05.999Z,35.80
2022-08-17T13:45:39.311Z,35.60
2022-08-17T13:48:14.559Z,36.10
2022-08-17T13:50:49.778Z,35.60
2022-08-17T13:53:26.902Z,35.10
2022-08-17T13:55:53.907Z,35.40
2022-08-17T13:58:31.170Z,34.40
2022-08-17T14:00:59.174Z,34.50
2022-08-17T14:03:26.240Z,35.20
2022-08-17T14:05:53.307Z,35.30
2022-08-17T14:08:25.171Z,35.00
2022-08-17T14:10:57.838Z,34.50
2022-08-17T14:13:26.455Z,34.30
2022-08-17T14:15:55.843Z,34.40
2022-08-17T14:18:45.655Z,34.10
2022-08-17T14:21:10.670Z,35.00
2022-08-17T14:23:37.677Z,34.50
2022-08-17T14:26:04.773Z,34.50
2022-08-17T14:28:32.080Z,34.70
2022-08-17T14:31:01.571Z,35.40
2022-08-17T14:33:29.016Z,35.70
2022-08-17T14:35:59.211Z,36.10
2022-08-17T14:38:26.287Z,35.80
2022-08-17T14:40:53.159Z,35.90
2022-08-17T14:43:21.713Z,36.20
2022-08-17T14:45:49.223Z,36.90
2022-08-17T14:48:17.949Z,37.20
2022-08-17T14:50:46.450Z,37.20
2022-08-17T14:53:14.425Z,37.60
2022-08-17T14:55:41.527Z,37.60
2022-08-17T14:58:09.181Z,37.30
2022-08-17T15:00:36.498Z,37.50
2022-08-17T15:03:03.798Z,37.60
2022-08-17T15:05:33.971Z,37.00
2022-08-17T15:08:01.295Z,36.70
2022-08-17T15:10:28.260Z,37.50
2022-08-17T15:12:57.226Z,37.50
2022-08-17T15:15:24.276Z,37.30
2022-08-17T15:17:51.781Z,37.80
2022-08-17T15:20:21.035Z,37.20
2022-08-17T15:22:50.209Z,37.50
2022-08-17T15:25:17.450Z,37.80
2022-08-17T15:27:44.403Z,37.60
2022-08-17T15:30:11.925Z,37.10
2022-08-17T15:32:39.246Z,36.60
2022-08-17T15:35:06.603Z,37.10
2022-08-17T15:37:33.802Z,37.30
2022-08-17T15:40:01.334Z,36.70
2022-08-17T15:42:30.486Z,36.50
2022-08-17T15:44:57.524Z,37.30
2022-08-17T15:47:26.302Z,37.70
2022-08-17T15:49:57.928Z,37.30
2022-08-17T15:52:27.290Z,37.10
2022-08-17T15:54:57.073Z,37.00
2022-08-17T15:57:26.983Z,37.30
2022-08-17T15:59:55.254Z,37.30
2022-08-17T16:03:45.218Z,37.50
2022-08-17T16:05:24.125Z,37.60
2022-08-17T16:07:52.713Z,38.00
2022-08-17T16:10:23.033Z,38.10
2022-08-17T16:13:02.744Z,38.00
2022-08-17T16:15:32.154Z,38.00
2022-08-17T16:18:14.067Z,37.60
2022-08-17T16:20:41.290Z,37.90
2022-08-17T16:23:18.451Z,38.30
2022-08-17T16:25:53.236Z,38.00
2022-08-17T16:28:21.966Z,37.80
2022-08-17T16:30:49.273Z,38.30
2022-08-17T16:33:17.174Z,38.70
2022-08-17T16:35:47.453Z,38.60
2022-08-17T16:38:14.531Z,39.10
2022-08-17T16:40:43.786Z,38.70
2022-08-17T16:43:14.205Z,38.90
2022-08-17T16:45:45.565Z,39.00
2022-08-17T16:48:16.114Z,39.40
2022-08-17T16:51:03.169Z,39.90
2022-08-17T16:53:31.105Z,40.20
2022-08-17T16:55:58.027Z,40.30
2022-08-17T16:58:25.131Z,40.00
2022-08-17T17:00:52.175Z,40.30
2022-08-17T17:03:20.682Z,40.80
2022-08-17T17:06:07.318Z,41.20
2022-08-17T17:08:38.436Z,41.60
2022-08-17T17:11:14.602Z,42.20
2022-08-17T17:13:47.629Z,42.70
2022-08-17T17:16:24.209Z,43.10
2022-08-17T17:19:00.449Z,43.50
2022-08-17T17:21:36.075Z,43.70
2022-08-17T17:24:07.961Z,44.00
2022-08-17T17:26:40.915Z,44.20
2022-08-17T17:29:11.244Z,44.60
2022-08-17T17:31:47.287Z,44.80
2022-08-17T17:34:16.093Z,45.00
2022-08-17T17:36:53.894Z,45.10
2022-08-17T17:39:32.788Z,45.40
2022-08-17T17:41:59.835Z,45.80
2022-08-17T17:44:32.628Z,46.30
2022-08-17T17:47:00.040Z,46.50
2022-08-17T17:49:28.118Z,46.90
2022-08-17T17:52:19.497Z,47.20
2022-08-17T17:55:05.085Z,47.50
2022-08-17T17:57:35.260Z,48.20
2022-08-17T18:00:03.828Z,48.00
2022-08-17T18:02:51.540Z,47.00
2022-08-17T18:05:25.664Z,48.40
2022-08-17T18:07:54.482Z,48.80
2022-08-17T18:10:31.777Z,48.90
2022-08-17T18:12:58.864Z,49.10
2022-08-17T18:15:30.023Z,49.30
2022-08-17T18:18:17.464Z,49.40
2022-08-17T18:20:56.082Z,49.60
2022-08-17T18:23:28.317Z,49.60
2022-08-17T18:25:59.569Z,49.80
2022-08-17T18:28:29.718Z,49.50
2022-08-17T18:31:13.252Z,49.50
2022-08-17T18:33:43.604Z,49.60
2022-08-17T18:36:11.768Z,49.90
2022-08-17T18:38:48.333Z,50.20
2022-08-17T18:41:24.527Z,50.50
2022-08-17T18:44:01.077Z,50.60
2022-08-17T18:46:30.291Z,50.90
2022-08-17T18:49:03.287Z,51.30
2022-08-17T18:51:41.968Z,51.50
2022-08-17T18:54:21.318Z,51.60
2022-08-17T18:56:49.344Z,51.80
2022-08-17T18:59:36.871Z,52.10
2022-08-17T19:02:24.921Z,52.20
2022-08-17T19:05:06.462Z,52.40
2022-08-17T19:07:38.441Z,52.60
2022-08-17T19:10:11.833Z,52.80
2022-08-17T19:12:41.883Z,52.80
2022-08-17T19:15:11.740Z,52.90
2022-08-17T19:17:45.330Z,53.00
2022-08-17T19:20:19.959Z,53.20
2022-08-17T19:22:52.332Z,53.40
2022-08-17T19:25:21.895Z,53.60
2022-08-17T19:28:01.440Z,53.90
2022-08-17T19:30:30.380Z,54.00
2022-08-17T19:33:00.418Z,54.10
2022-08-17T19:35:47.458Z,54.20
2022-08-17T19:38:15.828Z,54.40
2022-08-17T19:40:53.631Z,54.50
2022-08-17T19:43:36.421Z,54.60
2022-08-17T19:46:06.958Z,54.70
2022-08-17T19:48:37.466Z,54.80
2022-08-17T19:51:18.181Z,55.00
2022-08-17T19:54:06.642Z,55.20
2022-08-17T19:56:42.835Z,55.40
2022-08-17T19:59:12.674Z,55.60
2022-08-17T20:01:53.562Z,55.80
2022-08-17T20:04:32.301Z,56.00
2022-08-17T20:07:01.404Z,56.00
2022-08-17T20:09:29.654Z,56.00
2022-08-17T20:12:05.201Z,56.30
2022-08-17T20:14:35.038Z,56.40
2022-08-17T20:17:03.026Z,56.40
2022-08-17T20:19:44.418Z,56.60
2022-08-17T20:22:12.578Z,56.60
2022-08-17T20:24:44.255Z,56.70
2022-08-17T20:27:21.874Z,56.80
2022-08-17T20:30:02.297Z,57.00
2022-08-17T20:32:30.725Z,57.20
2022-08-17T20:35:07.460Z,57.40
2022-08-17T20:37:35.842Z,57.60
2022-08-17T20:40:09.239Z,57.70
2022-08-17T20:42:36.800Z,57.50
2022-08-17T20:45:26.425Z,57.60
2022-08-17T20:48:20.064Z,57.90
2022-08-17T20:50:45.455Z,58.20
2022-08-17T20:53:15.431Z,58.40
2022-08-17T20:55:52.434Z,58.60
2022-08-17T20:58:23.295Z,58.80
2022-08-17T21:00:59.254Z,58.80
2022-08-17T21:03:51.898Z,58.80
2022-08-17T21:06:20.708Z,58.80
2022-08-17T21:09:06.174Z,59.00
2022-08-17T21:12:02.416Z,59.30
2022-08-17T21:14:27.255Z,59.20
2022-08-17T21:17:15.126Z,59.20
2022-08-17T21:20:00.511Z,59.50
2022-08-17T21:22:32.019Z,60.20
2022-08-17T21:25:04.684Z,59.50
2022-08-17T21:27:42.097Z,59.50
2022-08-17T21:30:10.314Z,59.60
2022-08-17T21:32:41.967Z,59.60
2022-08-17T21:35:28.761Z,59.60
2022-08-17T21:37:57.055Z,59.80
2022-08-17T21:40:28.007Z,59.90
2022-08-17T21:42:56.286Z,60.00
2022-08-17T21:45:25.689Z,60.10
2022-08-17T21:48:11.659Z,60.10
2022-08-17T21:50:38.984Z,60.00
2022-08-17T21:53:05.874Z,60.10
2022-08-17T21:55:33.432Z,60.00
2022-08-17T21:58:14.034Z,59.90
2022-08-17T22:00:44.722Z,60.10
2022-08-17T22:03:22.194Z,60.40
2022-08-17T22:05:51.538Z,60.70
2022-08-17T22:08:20.103Z,60.70
2022-08-17T22:10:48.565Z,61.00
2022-08-17T22:13:17.388Z,61.50
2022-08-17T22:15:51.839Z,61.50
2022-08-17T22:18:20.639Z,61.80
2022-08-17T22:20:50.883Z,62.00
2022-08-17T22:23:43.134Z,62.30
2022-08-17T22:26:12.763Z,62.60
2022-08-17T22:28:41.434Z,62.60
2022-08-17T22:31:09.221Z,62.70
2022-08-17T22:33:40.617Z,62.60
2022-08-17T22:36:29.111Z,62.60
2022-08-17T22:38:57.469Z,62.60
2022-08-17T22:41:32.225Z,62.60
2022-08-17T22:44:02.646Z,62.70
2022-08-17T22:46:29.851Z,62.90
2022-08-17T22:49:15.214Z,63.30
2022-08-17T22:52:18.804Z,63.50
2022-08-17T22:58:30.844Z,63.70
2022-08-17T23:06:59.859Z,64.00
2022-08-17T23:09:29.158Z,64.00
2022-08-17T23:12:06.319Z,64.30
2022-08-17T23:14:36.040Z,64.20
2022-08-17T23:20:09.210Z,63.80
2022-08-17T23:22:52.325Z,63.80
2022-08-17T23:25:30.215Z,63.70
2022-08-17T23:27:59.433Z,63.70
2022-08-17T23:30:28.875Z,63.70
2022-08-17T23:32:56.785Z,64.50
2022-08-17T23:35:40.426Z,64.00
2022-08-17T23:38:11.134Z,64.00
2022-08-17T23:40:39.503Z,64.10
2022-08-17T23:45:54.517Z,64.70
2022-08-17T23:48:28.497Z,64.90
2022-08-17T23:51:04.083Z,64.90
2022-08-17T23:53:34.939Z,65.10
2022-08-17T23:56:07.021Z,65.20
2022-08-17T23:58:38.699Z,65.20
